Time;durP1;ratioP1;P1;durP2;ratioP2;P2;SDS_P1;SDS_P2;PMS_P1;PMS_P2;Temp;Humidity;BMP_temperature;BMP_pressure;BME280_temperature;BME280_humidity;BME280_pressure;Samples;Min_cycle;Max_cycle;Signal;HPM_P1;HPM_P2
2023/06/11 00:02:41;;;;;;;9.40;8.52;;;24.90;69.80;;;;;;4615445;60;22020;-37
2023/06/11 00:07:44;;;;;;;9.02;8.15;;;24.90;70.50;;;;;;4726233;56;21093;-39
2023/06/11 00:12:45;;;;;;;9.43;8.52;;;24.90;69.80;;;;;;4615394;60;21033;-37
2023/06/11 00:17:47;;;;;;;8.95;8.15;;;24.90;69.80;;;;;;4615504;60;21507;-36
2023/06/11 00:22:48;;;;;;;8.90;8.13;;;24.90;69.90;;;;;;4615685;60;21563;-39
2023/06/11 00:27:49;;;;;;;9.88;8.88;;;24.90;69.80;;;;;;4614935;56;21108;-38
2023/06/11 00:32:50;;;;;;;9.35;8.48;;;24.90;69.90;;;;;;4714521;56;21041;-37
2023/06/11 00:37:51;;;;;;;8.98;8.18;;;24.90;69.90;;;;;;4754712;56;21550;-39
2023/06/11 00:42:52;;;;;;;9.23;8.32;;;24.90;70.00;;;;;;4665711;56;21045;-38
2023/06/11 00:47:53;;;;;;;9.13;8.30;;;24.90;69.90;;;;;;4620895;56;21041;-37
2023/06/11 00:52:53;;;;;;;8.90;8.10;;;24.90;70.50;;;;;;4646353;56;21029;-37
2023/06/11 00:57:54;;;;;;;9.45;8.65;;;24.90;69.90;;;;;;4778212;56;21029;-39
2023/06/11 01:03:07;;;;;;;8.63;7.93;;;24.90;70.00;;;;;;4625456;56;21464;-36
2023/06/11 01:08:13;;;;;;;8.80;8.00;;;24.90;69.90;;;;;;4618936;56;21606;-36
2023/06/11 01:13:13;;;;;;;8.95;8.15;;;24.90;69.90;;;;;;4649923;56;21036;-38
2023/06/11 01:18:19;;;;;;;9.18;8.38;;;24.90;69.90;;;;;;4615673;60;21056;-35
2023/06/11 01:24:17;;;;;;;8.05;7.35;;;24.90;70.00;;;;;;4694899;56;21112;-36
2023/06/11 01:29:22;;;;;;;8.75;7.93;;;24.90;70.00;;;;;;4614758;60;21550;-39
2023/06/11 01:34:26;;;;;;;8.60;7.80;;;24.90;70.00;;;;;;4696104;56;21128;-38
2023/06/11 01:39:27;;;;;;;9.25;8.35;;;24.90;70.10;;;;;;4634630;56;21559;-38
2023/06/11 01:44:29;;;;;;;8.07;7.37;;;24.90;70.00;;;;;;4733759;56;21117;-35
2023/06/11 01:49:30;;;;;;;8.43;7.62;;;24.90;70.00;;;;;;4686076;56;21536;-38
2023/06/11 01:54:31;;;;;;;8.23;7.50;;;24.90;70.10;;;;;;4615694;60;21503;-35
2023/06/11 01:59:32;;;;;;;7.93;7.22;;;24.90;70.00;;;;;;4708400;56;21024;-37
2023/06/11 02:04:33;;;;;;;8.48;7.68;;;24.90;70.00;;;;;;4615836;60;21491;-32
2023/06/11 02:09:34;;;;;;;8.88;8.02;;;24.90;70.00;;;;;;4614432;58;21120;-39
2023/06/11 02:14:35;;;;;;;8.18;7.37;;;24.90;70.00;;;;;;4620281;56;21540;-37
2023/06/11 02:19:36;;;;;;;8.60;7.80;;;24.90;70.00;;;;;;4661550;56;21515;-39
2023/06/11 02:24:37;;;;;;;8.10;7.37;;;24.90;70.00;;;;;;4615446;60;21021;-39
2023/06/11 02:29:37;;;;;;;8.43;7.62;;;24.90;70.10;;;;;;4815215;56;21101;-38
2023/06/11 02:34:38;;;;;;;9.05;8.15;;;24.90;70.00;;;;;;4636473;56;21013;-38
2023/06/11 02:39:39;;;;;;;8.55;7.70;;;24.90;70.00;;;;;;4674810;56;21516;-38
2023/06/11 02:44:40;;;;;;;8.15;7.45;;;24.90;70.00;;;;;;4614524;60;21109;-38
2023/06/11 02:49:41;;;;;;;7.80;7.10;;;24.90;70.70;;;;;;4614724;60;21073;-39
2023/06/11 02:54:41;;;;;;;8.35;7.55;;;24.90;70.00;;;;;;4622593;56;21550;-36
2023/06/11 02:59:42;;;;;;;7.82;7.03;;;24.90;70.10;;;;;;4828044;56;21069;-36
2023/06/11 03:04:43;;;;;;;8.30;7.50;;;24.90;70.10;;;;;;4658787;56;21093;-38
2023/06/11 03:09:44;;;;;;;7.85;7.15;;;24.90;70.10;;;;;;4651744;56;21096;-37
2023/06/11 03:14:45;;;;;;;8.68;7.85;;;24.90;70.10;;;;;;4653379;56;21491;-34
2023/06/11 03:19:46;;;;;;;8.00;7.30;;;24.90;70.20;;;;;;4746736;56;21013;-37
2023/06/11 03:24:47;;;;;;;8.32;7.55;;;24.90;70.10;;;;;;4677269;56;21025;-38
2023/06/11 03:29:47;;;;;;;7.93;7.18;;;24.90;70.10;;;;;;4685069;56;21037;-33
2023/06/11 03:34:51;;;;;;;7.60;6.90;;;24.90;70.10;;;;;;4630393;56;21025;-34
2023/06/11 03:39:52;;;;;;;8.80;7.90;;;24.90;70.20;;;;;;4769058;56;21575;-37
2023/06/11 03:44:53;;;;;;;8.38;7.57;;;24.90;70.10;;;;;;4622414;56;21037;-37
2023/06/11 03:49:54;;;;;;;7.43;6.72;;;24.90;70.10;;;;;;4715946;56;21394;-39
2023/06/11 03:54:56;;;;;;;7.72;6.97;;;24.90;70.20;;;;;;4646282;56;21504;-39
2023/06/11 03:59:57;;;;;;;8.32;7.53;;;24.90;70.20;;;;;;4620080;56;21540;-36
2023/06/11 04:04:58;;;;;;;8.23;7.43;;;24.90;70.20;;;;;;4821322;56;21082;-31
2023/06/11 04:09:58;;;;;;;8.20;7.47;;;24.90;70.80;;;;;;4648781;56;21578;-38
2023/06/11 04:14:59;;;;;;;8.20;7.50;;;24.90;70.80;;;;;;4618043;56;21084;-39
2023/06/11 04:20:00;;;;;;;7.97;7.25;;;24.90;70.20;;;;;;4932541;56;21092;-38
2023/06/11 04:25:01;;;;;;;8.02;7.22;;;24.90;70.20;;;;;;4626452;56;21077;-36
2023/06/11 04:30:03;;;;;;;7.78;7.00;;;24.90;70.20;;;;;;4627394;56;21040;-36
2023/06/11 04:35:05;;;;;;;8.27;7.47;;;24.90;70.20;;;;;;4805268;56;21040;-39
2023/06/11 04:40:10;;;;;;;8.57;7.78;;;24.90;70.20;;;;;;4637450;56;21005;-39
2023/06/11 04:45:11;;;;;;;8.00;7.22;;;24.90;70.20;;;;;;4628139;56;21487;-37
2023/06/11 04:50:12;;;;;;;8.68;7.87;;;24.90;70.20;;;;;;4615477;60;21068;-38
2023/06/11 04:55:13;;;;;;;8.68;7.45;;;24.90;70.20;;;;;;4802264;56;21009;-37
2023/06/11 05:00:15;;;;;;;8.18;7.37;;;24.90;70.20;;;;;;4710472;56;21077;-35
2023/06/11 05:05:16;;;;;;;8.63;7.82;;;24.90;70.20;;;;;;4615254;60;21081;-35
2023/06/11 05:10:18;;;;;;;8.68;7.78;;;24.90;70.20;;;;;;4615344;60;21470;-44
2023/06/11 05:15:18;;;;;;;8.20;7.40;;;24.90;70.20;;;;;;4615380;56;21507;-34
2023/06/11 05:20:19;;;;;;;9.02;7.78;;;24.90;70.30;;;;;;4615572;60;21025;-36
2023/06/11 05:25:22;;;;;;;8.45;7.57;;;24.90;70.20;;;;;;4643404;56;21410;-36
2023/06/11 05:30:25;;;;;;;8.55;7.68;;;24.90;70.20;;;;;;4707497;56;21575;-37
2023/06/11 05:35:26;;;;;;;8.38;7.43;;;24.90;70.20;;;;;;4615426;60;22001;-37
2023/06/11 05:40:27;;;;;;;9.05;8.15;;;24.90;70.20;;;;;;4653178;56;21461;-38
2023/06/11 05:45:31;;;;;;;8.82;7.93;;;24.90;70.20;;;;;;4625382;56;21137;-39
2023/06/11 05:50:32;;;;;;;9.35;8.35;;;24.90;70.80;;;;;;4615544;60;21029;-39
2023/06/11 05:55:33;;;;;;;9.27;8.27;;;24.90;70.20;;;;;;4651546;56;21093;-36
2023/06/11 06:00:35;;;;;;;9.18;8.00;;;24.90;70.20;;;;;;4718190;56;21498;-37
2023/06/11 06:05:36;;;;;;;10.05;8.65;;;24.90;70.20;;;;;;4615683;60;21634;-39
2023/06/11 06:10:37;;;;;;;8.93;8.02;;;24.90;70.20;;;;;;4615961;60;21530;-38
2023/06/11 06:15:38;;;;;;;9.82;8.15;;;24.90;70.20;;;;;;4642621;56;21495;-36
2023/06/11 06:20:40;;;;;;;10.43;9.20;;;24.90;70.30;;;;;;4764554;56;21013;-38
2023/06/11 06:25:41;;;;;;;9.85;8.77;;;24.90;70.20;;;;;;4615616;60;21654;-37
2023/06/11 06:30:42;;;;;;;10.60;8.90;;;24.90;70.20;;;;;;4650151;56;21467;-39
2023/06/11 06:35:43;;;;;;;9.77;8.75;;;24.90;70.30;;;;;;4647451;56;21078;-37
2023/06/11 06:40:44;;;;;;;10.80;9.02;;;24.90;70.40;;;;;;4699117;56;21519;-40
2023/06/11 06:45:45;;;;;;;14.60;10.10;;;24.90;70.20;;;;;;4614660;60;21065;-36
2023/06/11 06:50:45;;;;;;;14.63;10.38;;;24.90;70.20;;;;;;4615451;59;21136;-37
2023/06/11 06:55:47;;;;;;;14.18;10.20;;;24.90;70.20;;;;;;4651325;55;21132;-35
2023/06/11 07:00:48;;;;;;;14.98;10.45;;;24.90;70.20;;;;;;4665418;55;21384;-35
2023/06/11 07:05:49;;;;;;;17.12;10.52;;;24.90;70.10;;;;;;4635073;56;21028;-36
2023/06/11 07:10:53;;;;;;;19.62;12.50;;;24.90;70.80;;;;;;4627829;55;21495;-39
2023/06/11 07:15:54;;;;;;;19.52;12.73;;;24.90;70.20;;;;;;4615549;60;21530;-38
2023/06/11 07:20:55;;;;;;;17.90;12.02;;;24.90;70.20;;;;;;4615305;60;21013;-39
2023/06/11 07:25:55;;;;;;;18.35;11.52;;;24.90;70.20;;;;;;4765202;56;21045;-37
2023/06/11 07:30:56;;;;;;;21.30;12.77;;;24.90;70.20;;;;;;4692868;55;21970;-36
2023/06/11 07:35:59;;;;;;;21.30;12.80;;;24.90;70.10;;;;;;4682720;55;21013;-39
2023/06/11 07:41:01;;;;;;;21.67;13.00;;;24.90;70.20;;;;;;4741642;55;21619;-36
2023/06/11 07:46:03;;;;;;;19.48;12.43;;;24.90;70.20;;;;;;4614589;59;21503;-38
2023/06/11 07:51:04;;;;;;;19.92;13.75;;;24.90;70.20;;;;;;4660827;56;21568;-37
2023/06/11 07:56:05;;;;;;;20.48;13.07;;;24.90;70.20;;;;;;4616890;55;21011;-37
2023/06/11 08:01:06;;;;;;;20.37;13.07;;;24.90;70.20;;;;;;4615438;60;21100;-36
2023/06/11 08:06:06;;;;;;;20.73;12.13;;;24.90;70.20;;;;;;4615172;59;21029;-38
2023/06/11 08:11:08;;;;;;;21.70;13.90;;;24.90;70.10;;;;;;4692619;55;21076;-37
2023/06/11 08:16:09;;;;;;;23.45;14.45;;;24.90;70.10;;;;;;4690214;56;21033;-41
2023/06/11 08:21:10;;;;;;;25.00;14.07;;;24.90;70.20;;;;;;4692118;55;21550;-40
2023/06/11 08:26:12;;;;;;;23.50;13.32;;;24.90;70.10;;;;;;4736627;55;21029;-38
2023/06/11 08:31:13;;;;;;;22.27;13.85;;;24.90;70.20;;;;;;4637445;55;21575;-36
2023/06/11 08:36:14;;;;;;;23.40;14.27;;;24.90;70.10;;;;;;4615486;55;21076;-38
2023/06/11 08:41:15;;;;;;;22.42;14.45;;;24.90;70.10;;;;;;4673988;55;21033;-40
2023/06/11 08:46:19;;;;;;;23.48;14.15;;;24.90;70.20;;;;;;4614155;60;21606;-37
2023/06/11 08:51:21;;;;;;;23.05;14.52;;;24.90;70.20;;;;;;4615406;60;21097;-38
2023/06/11 08:56:23;;;;;;;22.42;13.62;;;24.90;70.20;;;;;;4659627;56;21519;-38
2023/06/11 09:01:24;;;;;;;23.77;14.52;;;24.90;70.10;;;;;;4653669;56;21138;-37
2023/06/11 09:06:26;;;;;;;25.00;14.77;;;24.90;70.10;;;;;;4643775;55;21616;-38
2023/06/11 09:11:37;;;;;;;25.05;16.10;;;24.90;70.10;;;;;;4725572;56;21456;-37
2023/06/11 09:16:43;;;;;;;26.37;16.05;;;24.90;70.10;;;;;;4615340;60;21053;-35
2023/06/11 09:22:03;;;;;;;24.35;15.25;;;24.90;70.10;;;;;;4660848;56;21620;-39
2023/06/11 09:27:06;;;;;;;24.15;15.57;;;24.90;70.10;;;;;;4709919;56;21077;-35
2023/06/11 09:32:08;;;;;;;26.12;16.15;;;24.90;70.20;;;;;;4663888;56;21531;-37
2023/06/11 09:37:11;;;;;;;24.67;15.93;;;24.90;70.10;;;;;;4639979;56;21475;-36
2023/06/11 09:42:26;;;;;;;26.40;16.75;;;24.90;70.10;;;;;;4620293;56;21081;-37
2023/06/11 09:47:30;;;;;;;25.20;16.35;;;24.90;70.10;;;;;;4624616;56;21134;-34
2023/06/11 09:52:32;;;;;;;24.98;15.45;;;24.90;70.20;;;;;;4616181;60;21491;-37
2023/06/11 09:57:33;;;;;;;24.65;15.57;;;24.90;70.20;;;;;;4816357;56;21013;-34
2023/06/11 10:02:34;;;;;;;23.17;15.45;;;24.90;70.10;;;;;;4628166;56;21041;-38
2023/06/11 10:07:47;;;;;;;25.67;16.62;;;24.90;70.80;;;;;;4651965;55;21085;-38
2023/06/11 10:12:53;;;;;;;25.42;17.20;;;24.90;70.10;;;;;;4615710;60;21026;-38
2023/06/11 10:17:54;;;;;;;29.77;17.73;;;24.90;70.10;;;;;;4615744;60;21343;-37
2023/06/11 10:23:11;;;;;;;27.40;18.23;;;24.90;70.10;;;;;;4658764;55;21041;-35
2023/06/11 10:28:13;;;;;;;24.27;16.23;;;24.90;70.10;;;;;;4636916;56;21031;-38
2023/06/11 10:33:14;;;;;;;24.37;16.40;;;24.90;70.10;;;;;;4668518;56;21025;-39
2023/06/11 10:38:16;;;;;;;26.92;17.50;;;24.90;70.20;;;;;;4623873;55;21548;-36
2023/06/11 10:43:21;;;;;;;25.00;17.45;;;24.90;70.20;;;;;;4630587;55;21052;-35
2023/06/11 10:48:29;;;;;;;22.13;15.27;;;24.90;70.20;;;;;;4620071;56;21093;-38
2023/06/11 10:53:37;;;;;;;23.00;16.02;;;24.90;70.20;;;;;;4615383;60;21029;-38
2023/06/11 10:58:38;;;;;;;24.08;16.67;;;24.90;70.10;;;;;;4703494;56;21002;-35
2023/06/11 11:03:40;;;;;;;23.60;15.82;;;24.90;70.10;;;;;;4645659;56;21025;-38
2023/06/11 11:08:41;;;;;;;23.55;15.90;;;24.90;70.20;;;;;;4614900;60;21488;-38
2023/06/11 11:13:42;;;;;;;24.83;16.70;;;24.90;70.20;;;;;;4629724;55;21024;-36
2023/06/11 11:18:43;;;;;;;24.45;17.37;;;24.90;70.10;;;;;;4709876;55;21494;-36
2023/06/11 11:23:48;;;;;;;22.42;15.98;;;24.90;70.10;;;;;;4683896;55;21116;-37
2023/06/11 11:28:52;;;;;;;22.73;16.70;;;24.90;70.20;;;;;;4638992;56;21498;-38
2023/06/11 11:33:54;;;;;;;22.35;15.82;;;24.90;70.10;;;;;;4632367;56;21029;-39
2023/06/11 11:38:55;;;;;;;22.08;15.70;;;24.90;70.10;;;;;;4615634;60;21056;-40
2023/06/11 11:43:56;;;;;;;21.20;15.63;;;24.90;70.20;;;;;;4623350;55;21061;-38
2023/06/11 11:48:57;;;;;;;22.17;16.50;;;24.90;70.10;;;;;;4615782;56;21478;-34
2023/06/11 11:53:58;;;;;;;23.50;16.20;;;24.90;70.10;;;;;;4615385;59;21073;-36
2023/06/11 11:58:59;;;;;;;24.98;17.05;;;24.90;70.10;;;;;;4656019;56;21024;-40
2023/06/11 12:04:01;;;;;;;21.25;15.88;;;24.90;70.10;;;;;;4615639;58;21037;-35
2023/06/11 12:09:02;;;;;;;21.95;16.20;;;24.90;70.10;;;;;;4791693;56;21503;-38
2023/06/11 12:14:03;;;;;;;24.08;16.65;;;24.90;70.20;;;;;;4645675;55;21152;-38
2023/06/11 12:19:05;;;;;;;20.67;16.42;;;24.90;70.10;;;;;;4725724;55;21088;-38
2023/06/11 12:24:09;;;;;;;21.42;15.05;;;24.90;70.10;;;;;;4645196;55;21594;-38
2023/06/11 12:29:10;;;;;;;20.42;14.90;;;24.90;70.10;;;;;;4654212;55;21495;-39
2023/06/11 12:34:14;;;;;;;22.25;16.33;;;24.90;70.10;;;;;;4751777;55;21623;-39
2023/06/11 12:39:15;;;;;;;21.15;15.43;;;24.90;70.10;;;;;;4702862;56;22318;-35
2023/06/11 12:44:16;;;;;;;19.85;15.07;;;24.90;70.20;;;;;;4614494;59;21073;-35
2023/06/11 12:49:18;;;;;;;20.58;15.63;;;24.90;70.20;;;;;;4691730;55;21033;-36
2023/06/11 12:54:23;;;;;;;19.17;14.98;;;24.90;70.20;;;;;;4614980;60;21057;-35
2023/06/11 12:59:24;;;;;;;17.33;13.38;;;24.90;70.20;;;;;;4616204;55;21492;-42
2023/06/11 13:04:25;;;;;;;21.98;15.25;;;24.90;70.20;;;;;;4700087;55;21045;-38
2023/06/11 13:09:26;;;;;;;20.62;15.80;;;24.90;70.20;;;;;;4773650;55;21164;-38
2023/06/11 13:14:27;;;;;;;18.67;15.50;;;24.90;70.20;;;;;;4628642;55;20998;-37
2023/06/11 13:19:27;;;;;;;18.15;14.50;;;24.90;70.20;;;;;;4615174;59;21033;-37
2023/06/11 13:24:28;;;;;;;17.67;14.40;;;24.90;70.20;;;;;;4628186;55;22187;-42
2023/06/11 13:29:29;;;;;;;18.77;13.70;;;24.90;70.20;;;;;;4657046;55;21572;-38
2023/06/11 13:34:30;;;;;;;20.42;15.13;;;24.90;70.20;;;;;;4638435;55;21410;-38
2023/06/11 13:39:32;;;;;;;17.33;13.70;;;24.90;70.20;;;;;;4627795;55;21116;-38
2023/06/11 13:44:33;;;;;;;17.75;13.90;;;24.90;70.20;;;;;;4615111;59;21065;-36
2023/06/11 13:49:34;;;;;;;18.40;14.40;;;24.90;70.20;;;;;;4614874;60;21049;-35
2023/06/11 13:54:35;;;;;;;17.87;15.05;;;24.90;70.20;;;;;;4651521;55;21370;-37
2023/06/11 13:59:37;;;;;;;17.60;14.75;;;24.90;70.20;;;;;;4750098;56;21021;-36
2023/06/11 14:04:38;;;;;;;17.40;14.15;;;24.90;70.10;;;;;;4703206;56;21483;-39
2023/06/11 14:09:39;;;;;;;16.98;13.75;;;24.90;70.20;;;;;;4614969;59;21590;-37
2023/06/11 14:14:40;;;;;;;17.10;13.40;;;24.90;70.10;;;;;;4726151;55;21563;-35
2023/06/11 14:19:40;;;;;;;17.25;12.45;;;24.90;70.20;;;;;;4682716;55;21017;-39
2023/06/11 14:24:41;;;;;;;16.23;12.77;;;24.90;70.20;;;;;;4790425;55;21049;-38
2023/06/11 14:29:42;;;;;;;15.88;13.18;;;24.90;70.20;;;;;;4737066;55;21101;-36
2023/06/11 14:34:43;;;;;;;15.27;12.75;;;24.90;70.10;;;;;;4630797;55;21049;-39
2023/06/11 14:39:44;;;;;;;18.12;13.73;;;24.90;70.20;;;;;;4703009;56;21101;-39
2023/06/11 14:44:46;;;;;;;16.25;12.95;;;24.90;70.20;;;;;;4645148;55;21679;-37
2023/06/11 14:49:47;;;;;;;16.33;13.75;;;24.90;70.10;;;;;;4614476;56;21048;-36
2023/06/11 14:54:48;;;;;;;16.40;13.80;;;24.90;70.10;;;;;;4629541;55;21511;-37
2023/06/11 14:59:49;;;;;;;16.02;13.27;;;24.90;70.20;;;;;;4798933;55;21575;-36
2023/06/11 15:04:50;;;;;;;14.93;12.48;;;24.90;70.20;;;;;;4683652;55;21510;-38
2023/06/11 15:09:52;;;;;;;14.85;12.52;;;24.90;70.80;;;;;;4614315;60;21137;-36
2023/06/11 15:14:52;;;;;;;14.05;12.20;;;24.90;70.80;;;;;;4628857;56;21060;-37
2023/06/11 15:19:53;;;;;;;18.73;14.35;;;24.90;70.30;;;;;;4680419;55;21076;-37
2023/06/11 15:24:54;;;;;;;15.20;13.55;;;24.90;70.20;;;;;;4785894;56;21140;-38
2023/06/11 15:29:55;;;;;;;16.10;13.02;;;24.90;70.20;;;;;;4643903;55;21052;-32
2023/06/11 15:34:56;;;;;;;15.18;13.23;;;24.90;70.20;;;;;;4713433;55;21335;-38
2023/06/11 15:39:56;;;;;;;16.15;13.43;;;24.90;70.20;;;;;;4669967;55;21057;-39
2023/06/11 15:44:57;;;;;;;16.20;13.65;;;24.90;70.20;;;;;;4740236;55;21080;-34
2023/06/11 15:49:58;;;;;;;16.30;13.00;;;24.90;70.20;;;;;;4622246;55;21490;-38
2023/06/11 15:54:59;;;;;;;15.38;13.02;;;24.90;70.20;;;;;;4615618;57;22017;-38
2023/06/11 16:00:00;;;;;;;15.75;13.07;;;24.90;70.20;;;;;;4637348;55;21060;-39
2023/06/11 16:05:01;;;;;;;16.02;12.88;;;24.90;70.20;;;;;;4758230;55;21357;-39
2023/06/11 16:10:01;;;;;;;15.15;13.55;;;24.90;70.20;;;;;;4620909;55;21045;-39
2023/06/11 16:15:03;;;;;;;17.15;13.57;;;24.90;70.40;;;;;;4634581;55;21074;-38
2023/06/11 16:20:05;;;;;;;15.27;12.20;;;24.90;70.20;;;;;;4665926;56;21511;-39
2023/06/11 16:25:07;;;;;;;15.50;13.80;;;24.90;70.30;;;;;;4660374;56;21347;-38
2023/06/11 16:30:08;;;;;;;14.98;13.23;;;24.90;70.20;;;;;;4753585;56;21050;-37
2023/06/11 16:35:09;;;;;;;15.27;13.30;;;24.90;70.30;;;;;;4752006;56;21116;-39
2023/06/11 16:40:11;;;;;;;16.33;13.52;;;24.90;70.20;;;;;;4674840;55;21093;-36
2023/06/11 16:45:12;;;;;;;15.75;14.05;;;24.90;70.20;;;;;;4614264;60;21782;-34
2023/06/11 16:50:12;;;;;;;15.93;13.62;;;24.90;70.20;;;;;;4763713;55;21094;-37
2023/06/11 16:55:14;;;;;;;15.25;13.48;;;24.90;70.40;;;;;;4617966;55;21495;-37
2023/06/11 17:00:19;;;;;;;17.58;13.93;;;24.90;70.30;;;;;;4618613;55;21560;-37
2023/06/11 17:05:20;;;;;;;15.45;13.80;;;24.90;70.30;;;;;;4731596;55;21476;-38
2023/06/11 17:10:26;;;;;;;15.85;13.73;;;24.90;70.30;;;;;;4663309;56;21029;-34
2023/06/11 17:15:27;;;;;;;14.93;13.00;;;24.90;70.20;;;;;;4713436;56;21495;-37
2023/06/11 17:20:28;;;;;;;17.20;14.30;;;24.90;70.30;;;;;;4656204;55;21089;-37
2023/06/11 17:25:31;;;;;;;15.55;13.50;;;24.90;70.30;;;;;;4851557;55;21037;-38
2023/06/11 17:30:32;;;;;;;16.10;13.23;;;24.90;70.30;;;;;;4827734;55;21024;-37
2023/06/11 17:35:33;;;;;;;15.57;13.18;;;24.90;70.30;;;;;;4615521;59;21017;-38
2023/06/11 17:40:34;;;;;;;16.52;14.60;;;24.90;71.00;;;;;;4616043;55;21105;-34
2023/06/11 17:45:35;;;;;;;17.65;14.50;;;24.90;70.30;;;;;;4782206;55;21132;-36
2023/06/11 17:50:39;;;;;;;16.30;14.43;;;24.90;70.30;;;;;;4752327;55;21147;-35
2023/06/11 17:55:39;;;;;;;15.82;14.02;;;24.90;70.30;;;;;;4700138;56;21563;-37
2023/06/11 18:00:41;;;;;;;17.90;15.02;;;24.90;70.30;;;;;;4716862;55;21029;-39
2023/06/11 18:05:41;;;;;;;15.30;13.48;;;24.90;70.30;;;;;;4615913;60;21057;-39
2023/06/11 18:10:42;;;;;;;17.02;14.43;;;24.90;70.30;;;;;;4653282;55;21090;-37
2023/06/11 18:15:43;;;;;;;16.60;14.48;;;24.90;70.30;;;;;;4635816;55;21037;-38
2023/06/11 18:20:44;;;;;;;14.77;12.95;;;24.90;70.30;;;;;;4710088;56;21037;-36
2023/06/11 18:25:45;;;;;;;15.93;13.93;;;24.90;70.30;;;;;;4615772;60;21616;-37
2023/06/11 18:30:46;;;;;;;15.73;13.65;;;24.90;70.30;;;;;;4645744;55;21026;-37
2023/06/11 18:35:47;;;;;;;15.70;13.73;;;24.90;70.30;;;;;;4616183;59;21109;-39
2023/06/11 18:40:48;;;;;;;17.65;14.52;;;24.90;70.30;;;;;;4743498;55;21029;-40
2023/06/11 18:45:52;;;;;;;17.73;14.90;;;24.90;70.30;;;;;;4614566;60;21108;-37
2023/06/11 18:50:53;;;;;;;15.90;13.52;;;24.90;70.40;;;;;;4723540;55;21374;-38
2023/06/11 18:55:53;;;;;;;15.43;13.80;;;24.90;70.30;;;;;;4615567;59;21999;-38
2023/06/11 19:00:54;;;;;;;16.08;14.38;;;24.90;70.40;;;;;;4690245;55;21453;-38
2023/06/11 19:05:55;;;;;;;16.02;14.32;;;24.90;70.30;;;;;;4661626;55;21422;-36
2023/06/11 19:10:56;;;;;;;15.80;14.10;;;24.90;70.40;;;;;;4615646;59;21033;-34
2023/06/11 19:15:57;;;;;;;16.37;13.73;;;24.90;70.40;;;;;;4657090;55;21031;-35
2023/06/11 19:20:58;;;;;;;16.05;14.35;;;24.90;70.30;;;;;;4634833;55;21137;-31
2023/06/11 19:25:58;;;;;;;16.52;14.50;;;24.90;70.40;;;;;;4658108;55;21025;-37
2023/06/11 19:30:59;;;;;;;15.27;13.68;;;24.90;70.30;;;;;;4668954;55;21137;-37
2023/06/11 19:36:01;;;;;;;16.40;14.00;;;24.90;70.40;;;;;;4731028;55;21519;-37
2023/06/11 19:41:02;;;;;;;15.40;13.68;;;24.90;70.40;;;;;;4628679;56;21021;-36
2023/06/11 19:46:03;;;;;;;14.98;13.23;;;24.90;70.40;;;;;;4620557;55;21049;-34
2023/06/11 19:51:03;;;;;;;15.35;13.75;;;24.90;70.30;;;;;;4621144;56;21030;-35
2023/06/11 19:56:05;;;;;;;14.70;13.07;;;24.90;70.40;;;;;;4630029;55;21491;-36
2023/06/11 20:01:06;;;;;;;15.18;13.13;;;24.90;70.40;;;;;;4650509;56;21498;-36
2023/06/11 20:06:07;;;;;;;15.55;13.77;;;24.90;70.40;;;;;;4732193;56;21109;-36
2023/06/11 20:11:10;;;;;;;14.75;12.93;;;24.90;70.40;;;;;;4652129;55;21563;-34
2023/06/11 20:16:12;;;;;;;16.25;13.52;;;24.90;70.40;;;;;;4617487;55;21614;-38
2023/06/11 20:21:13;;;;;;;14.25;12.73;;;24.90;70.40;;;;;;4716857;56;21137;-32
2023/06/11 20:26:14;;;;;;;15.50;13.40;;;24.90;70.50;;;;;;4671131;56;21559;-41
2023/06/11 20:31:15;;;;;;;16.48;13.68;;;24.90;70.40;;;;;;4627028;55;21056;-38
2023/06/11 20:36:16;;;;;;;16.80;14.20;;;24.90;70.40;;;;;;4615506;55;21092;-35
2023/06/11 20:41:17;;;;;;;14.85;13.25;;;24.90;70.40;;;;;;4615511;55;21551;-34
2023/06/11 20:46:18;;;;;;;13.77;12.37;;;24.90;70.40;;;;;;4663086;55;21509;-36
2023/06/11 20:51:19;;;;;;;15.07;13.07;;;24.90;70.40;;;;;;4657583;55;21033;-37
2023/06/11 20:56:21;;;;;;;12.52;11.23;;;24.90;70.40;;;;;;4620967;56;21041;-38
2023/06/11 21:01:22;;;;;;;12.88;11.57;;;24.90;70.40;;;;;;4638543;55;21515;-39
2023/06/11 21:06:23;;;;;;;15.18;12.50;;;24.90;70.40;;;;;;4716070;55;21029;-37
2023/06/11 21:11:24;;;;;;;15.20;13.05;;;24.90;70.40;;;;;;4615879;60;21571;-40
2023/06/11 21:16:28;;;;;;;14.15;12.65;;;24.90;70.40;;;;;;4677904;55;21330;-37
2023/06/11 21:21:31;;;;;;;13.48;12.02;;;24.90;70.40;;;;;;4795351;55;21441;-37
2023/06/11 21:26:32;;;;;;;15.45;12.70;;;24.90;70.40;;;;;;4853146;55;21057;-34
2023/06/11 21:31:36;;;;;;;14.18;12.68;;;24.90;70.40;;;;;;4616024;60;21029;-36
2023/06/11 21:36:37;;;;;;;14.27;12.88;;;24.90;70.40;;;;;;4619588;56;21181;-33
2023/06/11 21:41:37;;;;;;;12.52;11.12;;;24.90;70.40;;;;;;4673562;56;21104;-35
2023/06/11 21:46:39;;;;;;;16.05;12.98;;;24.90;70.40;;;;;;4841363;55;21077;-37
2023/06/11 21:51:41;;;;;;;12.88;11.57;;;24.90;70.40;;;;;;4727721;55;21619;-36
2023/06/11 21:56:41;;;;;;;13.75;11.70;;;24.90;70.40;;;;;;4668903;56;21065;-38
2023/06/11 22:01:42;;;;;;;13.13;11.82;;;24.90;70.40;;;;;;4665313;55;21566;-37
2023/06/11 22:06:43;;;;;;;14.07;11.82;;;24.90;70.50;;;;;;4689741;55;21564;-37
2023/06/11 22:11:44;;;;;;;13.65;12.25;;;24.90;70.40;;;;;;4615614;56;21013;-38
2023/06/11 22:16:47;;;;;;;13.23;11.82;;;24.90;70.40;;;;;;4626716;55;21539;-40
2023/06/11 22:21:48;;;;;;;14.00;12.50;;;24.90;70.50;;;;;;4994444;55;21559;-38
2023/06/11 22:26:49;;;;;;;13.23;11.85;;;24.90;70.50;;;;;;4726313;55;21503;-39
2023/06/11 22:31:50;;;;;;;12.55;11.30;;;24.90;70.50;;;;;;4648185;55;21020;-37
2023/06/11 22:36:51;;;;;;;13.45;11.80;;;24.90;70.50;;;;;;4775021;55;21503;-34
2023/06/11 22:41:52;;;;;;;13.10;11.75;;;24.90;70.50;;;;;;4774896;55;21544;-34
2023/06/11 22:46:53;;;;;;;11.77;10.20;;;24.90;70.50;;;;;;4680452;55;21080;-37
2023/06/11 22:51:54;;;;;;;13.20;11.35;;;24.90;70.50;;;;;;4621430;55;21086;-36
2023/06/11 22:56:55;;;;;;;13.75;11.73;;;24.90;70.50;;;;;;4664864;56;21029;-38
2023/06/11 23:01:56;;;;;;;12.30;11.00;;;24.90;70.60;;;;;;4615850;59;21531;-35
2023/06/11 23:06:56;;;;;;;12.40;11.05;;;24.90;70.50;;;;;;4684696;56;21037;-38
2023/06/11 23:11:57;;;;;;;13.52;11.57;;;24.90;70.50;;;;;;4762749;55;21491;-37
2023/06/11 23:17:02;;;;;;;12.45;11.15;;;24.90;70.50;;;;;;4621105;55;21096;-38
2023/06/11 23:22:07;;;;;;;12.57;11.20;;;24.90;70.50;;;;;;4649514;55;21524;-46
2023/06/11 23:27:09;;;;;;;11.82;10.63;;;24.90;70.50;;;;;;4718573;56;21101;-36
2023/06/11 23:32:10;;;;;;;13.07;11.68;;;24.90;70.60;;;;;;4615507;59;21543;-39
2023/06/11 23:37:13;;;;;;;12.05;10.82;;;24.90;70.50;;;;;;4615523;59;21618;-39
2023/06/11 23:42:14;;;;;;;11.98;10.77;;;24.90;70.50;;;;;;4674069;55;22226;-38
2023/06/11 23:47:15;;;;;;;12.27;11.07;;;24.90;70.50;;;;;;4627014;55;21089;-39
2023/06/11 23:52:16;;;;;;;11.25;10.07;;;24.90;70.60;;;;;;4692126;56;21096;-36
2023/06/11 23:57:17;;;;;;;12.37;11.07;;;24.90;70.50;;;;;;4659159;55;21555;-35
